Time;durP1;ratioP1;P1;durP2;ratioP2;P2;SDS_P1;SDS_P2;PMS_P1;PMS_P2;Temp;Humidity;BMP_temperature;BMP_pressure;BME280_temperature;BME280_humidity;BME280_pressure;Samples;Min_cycle;Max_cycle;Signal;HPM_P1;HPM_P2
2021/12/13 00:27:54;;;;;;;;;;;9.80;99.90;;;;;;6192913;23;19952;-76
2021/12/13 07:01:21;;;;;;;;;;;8.80;99.90;;;;;;6153981;23;19992;-78
2021/12/13 07:07:46;;;;;;;;;;;8.80;99.90;;;;;;6100858;23;20052;-82
2021/12/13 07:13:44;;;;;;;;;;;8.20;99.90;;;;;;6129250;23;19925;-84
2021/12/13 07:16:26;;;;;;;;;;;8.70;99.90;;;;;;6131341;23;19921;-83
2021/12/13 07:21:59;;;;;;;;;;;8.90;99.90;;;;;;6130063;23;19920;-77
2021/12/13 07:53:16;;;;;;;;;;;8.50;99.90;;;;;;6158975;23;19924;-80
2021/12/13 08:06:05;;;;;;;;;;;9.40;99.90;;;;;;6159364;23;19927;-78
2021/12/13 08:09:17;;;;;;;;;;;9.00;99.90;;;;;;6037568;23;19946;-81
2021/12/13 08:12:07;;;;;;;;;;;8.30;99.90;;;;;;6056008;23;19928;-81
2021/12/13 08:17:42;;;;;;;;;;;9.20;99.90;;;;;;6152573;23;19947;-79
2021/12/13 08:29:45;;;;;;;;;;;8.90;99.90;;;;;;6154496;23;19931;-81
2021/12/13 08:41:56;;;;;;;;;;;9.00;99.90;;;;;;6054926;23;20250;-80
2021/12/13 08:44:40;;;;;;;;;;;9.00;99.90;;;;;;6159656;23;19924;-85
2021/12/13 08:53:38;;;;;;;;;;;9.10;99.90;;;;;;6184973;23;19962;-79
2021/12/13 08:56:38;;;;;;;;;;;9.00;99.90;;;;;;6159305;23;19974;-82
2021/12/13 09:09:48;;;;;;;14.33;9.17;;;9.60;99.90;;;;;;6261729;22;1244519;-78
2021/12/13 09:12:24;;;;;;;12.90;8.85;;;9.30;99.90;;;;;;6282686;22;20036;-79
2021/12/13 09:14:55;;;;;;;12.60;9.00;;;9.20;99.90;;;;;;6282182;22;20498;-80
2021/12/13 09:21:09;;;;;;;12.30;8.57;;;9.20;99.90;;;;;;6315027;22;20027;-78
2021/12/13 09:23:48;;;;;;;12.10;7.97;;;9.00;99.90;;;;;;6287779;22;20007;-76
2021/12/13 09:26:22;;;;;;;12.30;8.25;;;9.10;99.90;;;;;;6287699;22;20023;-75
2021/12/13 09:28:58;;;;;;;13.65;8.75;;;9.20;99.90;;;;;;6287157;22;20398;-82
2021/12/13 09:31:33;;;;;;;13.43;8.73;;;9.20;99.90;;;;;;6286648;22;20080;-77
2021/12/13 09:34:10;;;;;;;12.95;7.97;;;9.20;99.90;;;;;;6288016;22;20339;-78
2021/12/13 09:36:38;;;;;;;;;;;9.10;99.90;;;;;;6286767;22;20023;-78
2021/12/13 09:39:17;;;;;;;13.38;8.50;;;9.10;99.90;;;;;;6287092;22;19915;-78
2021/12/13 09:41:59;;;;;;;12.65;8.23;;;9.10;99.90;;;;;;6287096;22;20069;-78
2021/12/13 09:44:39;;;;;;;12.43;7.60;;;9.10;99.90;;;;;;6287171;22;20023;-78
2021/12/13 09:47:16;;;;;;;13.65;8.25;;;9.20;99.90;;;;;;6288153;22;20014;-78
2021/12/13 09:49:57;;;;;;;14.13;8.52;;;9.30;99.90;;;;;;6286878;22;20043;-79
2021/12/13 09:52:50;;;;;;;14.77;7.78;;;9.20;99.90;;;;;;6314888;22;20025;-76
2021/12/13 09:55:32;;;;;;;14.85;8.20;;;9.20;99.90;;;;;;6314415;22;20022;-76
2021/12/13 09:58:04;;;;;;;15.82;7.97;;;9.30;99.90;;;;;;6285563;22;20019;-75
2021/12/13 10:00:55;;;;;;;12.13;7.97;;;9.20;99.90;;;;;;6286269;22;20068;-77
2021/12/13 10:08:00;;;;;;;12.93;7.22;;;8.80;99.90;;;;;;6284141;22;20082;-78
2021/12/13 10:30:25;;;;;;;12.13;7.03;;;9.30;99.90;;;;;;6271110;22;20020;-78
2021/12/13 10:33:37;;;;;;;;;;;;;;;;;;;;;
2021/12/13 10:37:08;;;;;;;13.07;7.47;;;9.60;99.90;;;;;;6159201;22;20281;-82
2021/12/13 11:30:00;;;;;;;12.77;6.45;;;10.00;99.90;;;;;;6150705;23;20413;-78
2021/12/13 11:32:34;;;;;;;10.88;5.30;;;10.10;99.90;;;;;;6152044;23;20029;-78
2021/12/13 11:35:18;;;;;;;10.70;5.78;;;11.50;99.90;;;;;;6187974;22;20054;-76
2021/12/13 11:38:28;;;;;;;10.43;5.90;;;10.40;99.90;;;;;;6245620;22;20059;-77
2021/12/13 11:41:28;;;;;;;14.32;5.93;;;10.40;99.90;;;;;;6217010;23;20020;-77
2021/12/13 11:44:02;;;;;;;12.68;5.55;;;10.40;99.90;;;;;;6216385;23;20051;-76
2021/12/13 11:46:30;;;;;;;9.27;5.70;;;10.40;99.90;;;;;;6216404;23;20020;-77
2021/12/13 11:49:30;;;;;;;9.57;5.90;;;10.40;99.90;;;;;;6215949;23;20460;-78
2021/12/13 11:59:43;;;;;;;;;;;10.70;99.90;;;;;;6273412;22;20085;-78
2021/12/13 12:02:58;;;;;;;8.82;5.35;;;10.40;99.90;;;;;;6247373;22;20323;-80
2021/12/13 12:13:28;;;;;;;10.45;5.88;;;11.10;99.90;;;;;;6274846;22;20018;-79
2021/12/13 12:16:07;;;;;;;13.07;5.75;;;11.10;99.90;;;;;;6244811;22;20400;-75
2021/12/13 12:18:37;;;;;;;11.25;5.70;;;10.30;99.90;;;;;;6247288;22;20031;-76
2021/12/13 12:21:40;;;;;;;10.90;6.50;;;10.40;99.90;;;;;;6247923;22;20015;-76
2021/12/13 12:24:24;;;;;;;10.02;5.50;;;10.40;99.90;;;;;;6247298;22;20079;-78
2021/12/13 12:41:45;;;;;;;14.00;6.53;;;9.60;99.90;;;;;;6211332;23;20338;-80
2021/12/13 12:44:43;;;;;;;9.45;5.57;;;9.10;99.90;;;;;;6178271;23;20112;-80
2021/12/13 12:47:10;;;;;;;9.02;5.75;;;11.00;99.90;;;;;;6185441;23;20063;-81
2021/12/13 14:06:54;;;;;;;9.52;5.32;;;10.90;99.90;;;;;;6191810;22;20090;-77
2021/12/13 14:09:47;;;;;;;9.48;4.57;;;9.90;99.90;;;;;;6242763;22;20012;-77
2021/12/13 14:12:35;;;;;;;12.48;4.85;;;9.00;99.90;;;;;;6248231;22;20051;-76
2021/12/13 14:15:07;;;;;;;10.30;5.22;;;9.60;99.90;;;;;;6248993;22;20026;-77
2021/12/13 14:17:41;;;;;;;15.05;5.20;;;9.60;99.90;;;;;;6246552;22;20105;-77
2021/12/13 14:20:36;;;;;;;13.55;6.45;;;9.60;99.90;;;;;;6249014;22;20030;-78
2021/12/13 14:23:31;;;;;;;10.02;5.88;;;9.60;99.90;;;;;;6249574;22;20026;-77
2021/12/13 14:26:09;;;;;;;11.13;5.30;;;9.60;99.90;;;;;;6249496;22;20408;-76
2021/12/13 14:28:39;;;;;;;13.68;5.28;;;9.60;99.90;;;;;;6249367;22;20058;-77
2021/12/13 14:31:30;;;;;;;10.07;4.55;;;9.60;99.90;;;;;;6248418;22;20020;-77
2021/12/13 14:34:04;;;;;;;7.93;4.75;;;9.60;99.90;;;;;;6248910;22;20012;-78
2021/12/13 14:36:49;;;;;;;10.10;4.80;;;9.60;99.90;;;;;;6249287;22;20039;-78
2021/12/13 14:39:32;;;;;;;12.57;5.00;;;9.60;99.90;;;;;;6247737;22;20022;-75
2021/12/13 14:42:06;;;;;;;9.70;5.07;;;9.60;99.90;;;;;;6249182;22;20043;-77
2021/12/13 14:51:02;;;;;;;10.95;5.03;;;9.50;99.90;;;;;;6248790;22;20103;-77
2021/12/13 14:56:21;;;;;;;12.80;4.47;;;9.60;99.90;;;;;;6274604;22;20390;-75
2021/12/13 14:59:20;;;;;;;9.57;4.65;;;9.60;99.90;;;;;;6248076;22;20023;-76
2021/12/13 15:01:50;;;;;;;10.68;4.32;;;9.60;99.90;;;;;;6248553;22;20016;-75
2021/12/13 15:04:48;;;;;;;8.13;4.53;;;9.60;99.90;;;;;;6248361;22;20076;-74
2021/12/13 15:07:23;;;;;;;11.00;4.35;;;9.60;99.90;;;;;;6247830;22;20018;-76
2021/12/13 15:09:56;;;;;;;14.75;6.88;;;9.80;99.90;;;;;;6249166;22;20027;-76
2021/12/13 15:12:57;;;;;;;11.95;6.43;;;10.50;99.90;;;;;;6248759;22;20012;-82
2021/12/13 15:15:40;;;;;;;10.38;5.00;;;10.00;99.90;;;;;;6248246;22;20027;-75
2021/12/13 15:18:11;;;;;;;10.02;4.35;;;10.80;99.90;;;;;;6248818;22;20098;-76
2021/12/13 15:20:47;;;;;;;9.27;4.82;;;9.70;99.90;;;;;;6247114;22;20027;-74
2021/12/13 15:23:24;;;;;;;10.85;5.30;;;9.70;99.90;;;;;;6248861;22;20047;-74
2021/12/13 15:25:54;;;;;;;10.05;5.50;;;9.70;99.90;;;;;;6248785;22;20062;-85
2021/12/13 15:28:34;;;;;;;8.77;5.10;;;9.60;99.90;;;;;;6248470;22;20016;-84
2021/12/13 15:31:25;;;;;;;8.38;5.38;;;9.60;99.90;;;;;;6248706;22;20027;-73
2021/12/13 15:33:54;;;;;;;9.05;5.78;;;9.70;99.90;;;;;;6235003;22;20016;-77
2021/12/13 15:36:22;;;;;;;9.93;5.72;;;9.70;99.90;;;;;;6248523;22;20012;-78
2021/12/13 15:39:00;;;;;;;9.73;5.85;;;9.60;99.90;;;;;;6247814;22;20023;-76
2021/12/13 15:41:26;;;;;;;11.55;6.07;;;9.50;99.90;;;;;;6270116;22;20016;-76
2021/12/13 15:50:58;;;;;;;12.25;7.78;;;9.20;99.90;;;;;;6229739;22;20019;-76
2021/12/13 15:53:36;;;;;;;11.75;7.20;;;9.40;99.90;;;;;;6246456;22;20032;-74
2021/12/13 15:56:14;;;;;;;10.20;7.40;;;10.20;99.90;;;;;;6274255;22;20012;-81
2021/12/13 15:58:43;;;;;;;11.82;7.65;;;9.40;99.90;;;;;;6250781;22;20012;-81
2021/12/13 16:01:20;;;;;;;12.73;7.85;;;9.30;99.90;;;;;;6251570;22;20046;-79
2021/12/13 16:07:15;;;;;;;13.05;7.90;;;9.30;99.90;;;;;;6273409;22;20031;-77
2021/12/13 16:10:28;;;;;;;13.85;8.00;;;9.40;99.90;;;;;;6246949;22;20122;-78
2021/12/13 16:13:01;;;;;;;12.73;8.55;;;8.70;99.90;;;;;;6214844;22;20019;-79
2021/12/13 16:23:29;;;;;;;16.25;9.55;;;9.30;99.90;;;;;;6274750;22;20427;-79
2021/12/13 16:29:49;;;;;;;17.08;9.52;;;9.00;99.90;;;;;;6247282;23;20096;-76
2021/12/13 16:32:27;;;;;;;13.98;9.30;;;8.30;99.90;;;;;;6217045;23;20098;-83
2021/12/13 16:35:30;;;;;;;16.80;10.23;;;10.40;99.90;;;;;;6243714;23;20016;-79
2021/12/13 16:42:28;;;;;;;15.63;9.00;;;8.80;99.90;;;;;;6245082;23;20053;-78
2021/12/13 16:45:09;;;;;;;18.00;10.45;;;9.20;99.90;;;;;;6244724;23;20016;-81
2021/12/13 16:47:51;;;;;;;16.92;9.82;;;9.20;99.90;;;;;;6217436;23;20825;-80
2021/12/13 16:50:28;;;;;;;18.27;11.02;;;9.10;99.90;;;;;;6242249;23;20016;-78
2021/12/13 16:56:52;;;;;;;15.02;9.95;;;8.50;99.90;;;;;;6244448;23;20023;-80
2021/12/13 17:00:04;;;;;;;18.25;9.50;;;9.00;99.90;;;;;;6216594;23;20024;-82
2021/12/13 17:07:11;;;;;;;16.67;10.50;;;8.60;99.90;;;;;;6244951;23;20015;-86
2021/12/13 17:10:12;;;;;;;16.75;10.35;;;9.00;99.90;;;;;;6214473;23;20027;-85
2021/12/13 17:13:18;;;;;;;15.15;9.73;;;8.80;99.90;;;;;;6153083;23;20013;-79
2021/12/13 17:23:31;;;;;;;18.48;10.30;;;9.00;99.90;;;;;;6276461;22;20436;-82
2021/12/13 17:26:37;;;;;;;14.98;9.73;;;8.40;99.90;;;;;;6233416;22;20042;-76
2021/12/13 17:39:33;;;;;;;18.40;11.55;;;8.90;99.90;;;;;;6272719;22;20110;-78
2021/12/13 17:44:40;;;;;;;17.48;10.20;;;8.80;99.90;;;;;;6276367;22;20023;-75
2021/12/13 17:47:07;;;;;;;19.35;10.85;;;8.70;99.90;;;;;;6249799;22;20501;-74
2021/12/13 17:49:42;;;;;;;22.05;11.15;;;8.70;99.90;;;;;;6248674;22;20015;-76
2021/12/13 17:52:08;;;;;;;20.17;10.27;;;8.70;99.90;;;;;;6248952;22;20317;-79
2021/12/13 17:54:46;;;;;;;20.40;10.45;;;8.80;99.90;;;;;;6248259;22;20390;-78
2021/12/13 17:57:14;;;;;;;18.75;10.40;;;8.80;99.90;;;;;;6248845;22;20080;-73
2021/12/13 17:59:40;;;;;;;21.25;10.32;;;8.70;99.90;;;;;;6277065;22;20031;-73
2021/12/13 18:02:08;;;;;;;;;;;8.70;99.90;;;;;;6276764;22;20111;-77
2021/12/13 18:04:56;;;;;;;18.13;10.32;;;8.70;99.90;;;;;;6276393;22;20327;-78
2021/12/13 18:07:35;;;;;;;18.35;10.45;;;8.60;99.90;;;;;;6276062;22;20498;-75
2021/12/13 18:10:06;;;;;;;17.55;10.07;;;8.60;99.90;;;;;;6249147;22;20027;-78
2021/12/13 18:12:36;;;;;;;19.88;10.77;;;8.60;99.90;;;;;;6273077;22;20024;-75
2021/12/13 18:15:25;;;;;;;18.27;10.45;;;8.50;99.90;;;;;;6249105;22;20012;-76
2021/12/13 18:18:03;;;;;;;18.00;10.25;;;8.50;99.90;;;;;;6248208;22;20463;-74
2021/12/13 18:20:39;;;;;;;19.80;9.52;;;9.20;99.90;;;;;;6243678;22;20019;-75
2021/12/13 18:23:16;;;;;;;16.75;10.15;;;8.50;99.90;;;;;;6248089;22;20038;-81
2021/12/13 18:25:52;;;;;;;16.08;9.68;;;8.60;99.90;;;;;;6248767;22;20028;-75
2021/12/13 18:28:30;;;;;;;18.35;10.50;;;8.50;99.90;;;;;;6275662;22;20019;-76
2021/12/13 18:31:17;;;;;;;16.27;9.70;;;8.50;99.90;;;;;;6274559;22;20015;-74
2021/12/13 18:33:56;;;;;;;18.27;10.25;;;8.50;99.90;;;;;;6276374;22;20039;-76
2021/12/13 18:36:36;;;;;;;16.83;9.90;;;8.60;99.90;;;;;;6248016;22;20087;-76
2021/12/13 18:39:35;;;;;;;22.52;10.95;;;8.60;99.90;;;;;;6245657;22;20050;-76
2021/12/13 18:42:39;;;;;;;16.55;9.63;;;8.60;99.90;;;;;;6174747;22;20325;-76
2021/12/13 18:51:26;;;;;;;18.33;9.90;;;8.60;99.90;;;;;;6150320;23;20052;-75
2021/12/13 18:54:02;;;;;;;16.77;9.93;;;7.20;99.90;;;;;;6127372;23;20028;-76
2021/12/13 18:56:38;;;;;;;18.77;9.90;;;8.50;99.90;;;;;;6126841;23;20024;-77
2021/12/13 18:59:27;;;;;;;19.90;10.48;;;8.50;99.90;;;;;;6126162;23;20017;-73
2021/12/13 19:04:45;;;;;;;17.42;9.95;;;8.50;99.90;;;;;;6290483;22;20027;-82
2021/12/13 19:42:35;;;;;;;15.38;9.30;;;7.90;99.90;;;;;;6276046;22;20034;-81
2021/12/13 19:49:22;;;;;;;16.77;9.00;;;7.40;99.90;;;;;;6279176;22;20592;-78
2021/12/13 19:55:29;;;;;;;16.38;8.70;;;8.20;99.90;;;;;;6253779;22;20016;-84
2021/12/13 20:31:36;;;;;;;15.35;8.43;;;8.20;99.90;;;;;;6243905;23;20055;-79
2021/12/13 20:41:36;;;;;;;17.20;9.90;;;8.70;99.90;;;;;;6247664;22;20051;-76
2021/12/13 20:44:10;;;;;;;19.33;9.52;;;8.40;99.90;;;;;;6246966;22;20265;-75
2021/12/13 20:46:40;;;;;;;22.45;10.55;;;8.50;99.90;;;;;;6247484;22;20015;-75
2021/12/13 20:49:19;;;;;;;16.02;9.55;;;8.40;99.90;;;;;;6246234;22;20081;-75
2021/12/13 20:51:50;;;;;;;18.60;9.52;;;8.40;99.90;;;;;;6245158;22;20019;-74
2021/12/13 20:54:21;;;;;;;16.67;8.50;;;8.40;99.90;;;;;;6246459;22;20016;-75
2021/12/13 20:56:53;;;;;;;16.38;9.25;;;8.40;99.90;;;;;;6246774;22;20019;-75
2021/12/13 20:59:29;;;;;;;14.13;8.75;;;8.40;99.90;;;;;;6245773;22;20034;-76
2021/12/13 21:02:07;;;;;;;17.00;8.80;;;8.30;99.90;;;;;;6246897;22;20432;-75
2021/12/13 21:04:59;;;;;;;15.93;8.70;;;8.50;99.90;;;;;;6246363;22;20027;-76
2021/12/13 21:07:27;;;;;;;14.13;8.48;;;8.50;99.90;;;;;;6232601;22;20019;-75
2021/12/13 21:10:18;;;;;;;16.15;8.77;;;8.60;99.90;;;;;;6246320;22;20073;-76
2021/12/13 21:12:51;;;;;;;15.07;8.63;;;8.50;99.90;;;;;;6245870;22;20344;-76
2021/12/13 21:15:19;;;;;;;16.08;8.07;;;8.50;99.90;;;;;;6246703;22;20094;-75
2021/12/13 21:17:50;;;;;;;16.65;8.15;;;8.40;99.90;;;;;;6247494;22;20054;-75
2021/12/13 21:20:18;;;;;;;16.50;8.27;;;8.40;99.90;;;;;;6272914;22;20375;-75
2021/12/13 21:22:49;;;;;;;13.20;8.27;;;8.50;99.90;;;;;;6274014;22;20011;-75
2021/12/13 21:25:37;;;;;;;13.75;8.05;;;8.40;99.90;;;;;;6246082;22;20321;-75
2021/12/13 21:28:13;;;;;;;18.23;9.02;;;8.40;99.90;;;;;;6247451;22;20043;-75
2021/12/13 21:31:08;;;;;;;15.18;8.55;;;8.40;99.90;;;;;;6270478;22;20023;-75
2021/12/13 21:33:45;;;;;;;11.98;7.63;;;8.40;99.90;;;;;;6247072;22;20022;-75
2021/12/13 21:36:25;;;;;;;14.98;8.45;;;8.50;99.90;;;;;;6273833;22;20018;-75
2021/12/13 21:42:03;;;;;;;16.15;8.77;;;8.50;99.90;;;;;;6245994;22;20024;-75
2021/12/13 21:44:44;;;;;;;16.30;9.40;;;8.40;99.90;;;;;;6242544;22;20089;-75
2021/12/13 21:47:16;;;;;;;17.25;8.52;;;8.40;99.90;;;;;;6244539;22;20062;-75
2021/12/13 21:49:59;;;;;;;15.70;9.32;;;8.30;99.90;;;;;;6245373;22;20023;-74
2021/12/13 21:52:36;;;;;;;15.45;8.82;;;8.30;99.90;;;;;;6246243;22;20466;-74
2021/12/13 21:55:19;;;;;;;13.95;8.50;;;8.40;99.90;;;;;;6273032;22;20395;-75
2021/12/13 21:58:08;;;;;;;14.15;7.95;;;8.40;99.90;;;;;;6245551;22;20084;-75
2021/12/13 22:00:56;;;;;;;15.02;8.43;;;8.50;99.90;;;;;;6245153;22;20012;-75
2021/12/13 22:03:25;;;;;;;14.27;8.05;;;8.50;99.90;;;;;;6245626;22;20111;-75
2021/12/13 22:06:00;;;;;;;13.95;8.13;;;8.50;99.90;;;;;;6246821;22;20159;-75
2021/12/13 22:08:42;;;;;;;16.55;8.30;;;8.50;99.90;;;;;;6247086;22;20069;-75
2021/12/13 22:11:17;;;;;;;13.98;8.73;;;8.60;99.90;;;;;;6247268;22;20020;-74
2021/12/13 22:13:53;;;;;;;14.15;8.93;;;8.50;99.90;;;;;;6246911;22;20015;-75
2021/12/13 22:16:41;;;;;;;14.25;8.45;;;8.50;99.90;;;;;;6246657;22;20007;-76
2021/12/13 22:19:35;;;;;;;14.63;7.93;;;8.50;99.90;;;;;;6247359;22;20019;-75
2021/12/13 22:22:03;;;;;;;15.57;8.85;;;8.50;99.90;;;;;;6248924;22;20086;-75
2021/12/13 22:24:53;;;;;;;15.35;8.52;;;8.40;99.90;;;;;;6275630;22;20513;-75
2021/12/13 22:27:25;;;;;;;14.35;8.20;;;8.50;99.90;;;;;;6249149;22;20016;-75
2021/12/13 22:29:57;;;;;;;16.67;8.63;;;8.50;99.90;;;;;;6276093;22;20015;-75
2021/12/13 22:32:27;;;;;;;16.70;9.05;;;8.40;99.90;;;;;;6248788;22;20016;-75
2021/12/13 22:35:00;;;;;;;18.13;9.05;;;8.40;99.90;;;;;;6248398;22;20069;-75
2021/12/13 22:37:40;;;;;;;17.70;9.63;;;8.80;99.90;;;;;;6247509;22;20440;-75
2021/12/13 22:40:39;;;;;;;16.65;9.35;;;8.50;99.90;;;;;;6249204;22;20094;-75
2021/12/13 22:43:34;;;;;;;14.27;8.43;;;8.40;99.90;;;;;;6141672;22;20138;-75
2021/12/13 22:46:15;;;;;;;15.43;9.23;;;8.50;99.90;;;;;;6232621;22;20019;-75
2021/12/13 22:48:44;;;;;;;18.13;8.95;;;8.50;99.90;;;;;;6248809;22;20393;-75
2021/12/13 22:51:13;;;;;;;15.90;9.35;;;8.40;99.90;;;;;;6248063;22;20495;-75
2021/12/13 22:53:42;;;;;;;13.63;9.20;;;8.50;99.90;;;;;;6249277;22;20016;-75
2021/12/13 22:56:16;;;;;;;16.40;9.57;;;8.40;99.90;;;;;;6276556;22;20024;-75
2021/12/13 22:58:47;;;;;;;15.43;8.82;;;8.40;99.90;;;;;;6218150;23;20345;-75
2021/12/13 23:01:19;;;;;;;17.63;9.95;;;8.40;99.90;;;;;;6217802;23;20017;-75
2021/12/13 23:03:50;;;;;;;15.75;8.77;;;8.40;99.90;;;;;;6218962;23;20035;-75
2021/12/13 23:06:18;;;;;;;15.90;9.10;;;8.40;99.90;;;;;;6244656;23;20016;-75
2021/12/13 23:08:59;;;;;;;14.40;8.48;;;8.30;99.90;;;;;;6218477;23;20432;-75
2021/12/13 23:13:59;;;;;;;15.07;8.98;;;8.40;99.90;;;;;;6219014;23;20027;-76
2021/12/13 23:16:43;;;;;;;15.40;8.88;;;8.30;99.90;;;;;;6245353;23;20023;-76
2021/12/13 23:19:15;;;;;;;15.90;9.88;;;8.30;99.90;;;;;;6245217;23;20020;-75
2021/12/13 23:21:46;;;;;;;16.00;9.55;;;8.30;99.90;;;;;;6218290;23;20135;-75
2021/12/13 23:24:14;;;;;;;15.93;8.65;;;8.30;99.90;;;;;;6218118;23;20452;-75
2021/12/13 23:26:46;;;;;;;15.52;9.02;;;8.30;99.90;;;;;;6245094;23;20058;-75
2021/12/13 23:29:19;;;;;;;13.43;8.18;;;8.40;99.90;;;;;;6218393;23;20054;-74
2021/12/13 23:31:45;;;;;;;17.05;9.85;;;8.30;99.90;;;;;;6218704;23;20444;-74
2021/12/13 23:34:11;;;;;;;;;;;8.30;99.90;;;;;;6243332;23;20058;-75
2021/12/13 23:36:49;;;;;;;15.30;9.27;;;8.40;99.90;;;;;;6218567;23;19915;-75
2021/12/13 23:47:53;;;;;;;;;;;8.20;99.90;;;;;;6242826;23;20448;-75
2021/12/13 23:50:20;;;;;;;17.55;9.32;;;8.10;99.90;;;;;;6216942;23;19926;-75
2021/12/13 23:52:54;;;;;;;15.48;9.35;;;8.10;99.90;;;;;;6218097;23;20083;-75
2021/12/13 23:55:32;;;;;;;17.15;8.68;;;8.20;99.90;;;;;;6216832;23;20012;-75
2021/12/13 23:58:05;;;;;;;18.58;9.48;;;8.30;99.90;;;;;;6217966;23;20083;-75
